sensor_id;sensor_type;location;lat;lon;timestamp;pressure;altitude;pressure_sealevel;temperature;humidity
76627;BME280;65519;53.230;10.390;2023-07-31T00:02:22;100569.28;;;14.48;89.83
76627;BME280;65519;53.230;10.390;2023-07-31T00:04:48;100571.84;;;14.40;90.69
76627;BME280;65519;53.230;10.390;2023-07-31T00:07:14;100572.78;;;14.30;90.56
76627;BME280;65519;53.230;10.390;2023-07-31T00:09:40;100572.16;;;14.38;90.89
76627;BME280;65519;53.230;10.390;2023-07-31T00:12:06;100576.75;;;14.43;89.49
76627;BME280;65519;53.230;10.390;2023-07-31T00:14:31;100569.47;;;14.52;89.25
76627;BME280;65519;53.230;10.390;2023-07-31T00:16:57;100568.66;;;14.51;89.82
76627;BME280;65519;53.230;10.390;2023-07-31T00:19:22;100564.22;;;14.55;89.66
76627;BME280;65519;53.230;10.390;2023-07-31T00:21:48;100561.88;;;14.49;89.55
76627;BME280;65519;53.230;10.390;2023-07-31T00:24:13;100554.06;;;14.56;89.33
76627;BME280;65519;53.230;10.390;2023-07-31T00:26:40;100558.16;;;14.58;89.16
76627;BME280;65519;53.230;10.390;2023-07-31T00:29:05;100559.78;;;14.59;89.25
76627;BME280;65519;53.230;10.390;2023-07-31T00:31:31;100554.88;;;14.56;89.05
76627;BME280;65519;53.230;10.390;2023-07-31T00:33:56;100551.84;;;14.58;89.78
76627;BME280;65519;53.230;10.390;2023-07-31T00:36:22;100549.41;;;14.56;89.69
76627;BME280;65519;53.230;10.390;2023-07-31T00:38:47;100544.91;;;14.60;89.56
76627;BME280;65519;53.230;10.390;2023-07-31T00:41:14;100537.84;;;14.59;89.54
76627;BME280;65519;53.230;10.390;2023-07-31T00:43:39;100530.19;;;14.56;89.69
76627;BME280;65519;53.230;10.390;2023-07-31T00:46:07;100533.34;;;14.64;89.75
76627;BME280;65519;53.230;10.390;2023-07-31T00:48:32;100527.50;;;14.70;89.46
76627;BME280;65519;53.230;10.390;2023-07-31T00:50:59;100515.25;;;14.63;90.20
76627;BME280;65519;53.230;10.390;2023-07-31T00:53:27;100519.47;;;14.74;89.88
76627;BME280;65519;53.230;10.390;2023-07-31T00:55:53;100520.78;;;14.76;89.77
76627;BME280;65519;53.230;10.390;2023-07-31T00:58:19;100522.66;;;14.81;89.60
76627;BME280;65519;53.230;10.390;2023-07-31T01:00:45;100518.75;;;14.82;90.17
76627;BME280;65519;53.230;10.390;2023-07-31T01:03:11;100517.88;;;14.86;89.20
76627;BME280;65519;53.230;10.390;2023-07-31T01:05:56;100515.94;;;14.87;89.23
76627;BME280;65519;53.230;10.390;2023-07-31T01:08:31;100521.66;;;14.90;90.22
76627;BME280;65519;53.230;10.390;2023-07-31T01:11:16;100521.66;;;14.90;89.83
76627;BME280;65519;53.230;10.390;2023-07-31T01:13:44;100507.63;;;14.92;90.19
76627;BME280;65519;53.230;10.390;2023-07-31T01:16:11;100513.59;;;14.94;89.84
76627;BME280;65519;53.230;10.390;2023-07-31T01:18:36;100496.03;;;14.95;89.74
76627;BME280;65519;53.230;10.390;2023-07-31T01:26:25;100512.50;;;14.95;90.37
76627;BME280;65519;53.230;10.390;2023-07-31T01:31:29;100503.16;;;14.96;90.96
76627;BME280;65519;53.230;10.390;2023-07-31T01:33:55;100493.41;;;14.90;90.61
76627;BME280;65519;53.230;10.390;2023-07-31T01:36:21;100496.66;;;14.92;91.37
76627;BME280;65519;53.230;10.390;2023-07-31T01:38:47;100489.09;;;14.84;91.56
76627;BME280;65519;53.230;10.390;2023-07-31T01:41:13;100477.00;;;14.85;91.51
76627;BME280;65519;53.230;10.390;2023-07-31T01:43:39;100490.44;;;14.86;91.80
76627;BME280;65519;53.230;10.390;2023-07-31T01:46:04;100489.84;;;14.89;91.50
76627;BME280;65519;53.230;10.390;2023-07-31T01:48:30;100482.19;;;14.86;91.84
76627;BME280;65519;53.230;10.390;2023-07-31T01:51:01;100481.97;;;14.83;91.98
76627;BME280;65519;53.230;10.390;2023-07-31T01:53:27;100473.84;;;14.78;92.64
76627;BME280;65519;53.230;10.390;2023-07-31T01:55:52;100474.97;;;14.77;93.56
76627;BME280;65519;53.230;10.390;2023-07-31T01:58:18;100472.53;;;14.75;93.14
76627;BME280;65519;53.230;10.390;2023-07-31T02:00:43;100469.06;;;14.83;93.16
76627;BME280;65519;53.230;10.390;2023-07-31T02:03:09;100467.25;;;14.79;93.54
76627;BME280;65519;53.230;10.390;2023-07-31T02:05:34;100457.59;;;14.81;93.30
76627;BME280;65519;53.230;10.390;2023-07-31T02:08:00;100464.00;;;14.77;93.92
76627;BME280;65519;53.230;10.390;2023-07-31T02:10:26;100457.47;;;14.73;94.05
76627;BME280;65519;53.230;10.390;2023-07-31T02:12:52;100458.56;;;14.72;94.34
76627;BME280;65519;53.230;10.390;2023-07-31T02:15:17;100470.78;;;14.66;94.99
76627;BME280;65519;53.230;10.390;2023-07-31T02:17:43;100472.09;;;14.68;94.99
76627;BME280;65519;53.230;10.390;2023-07-31T02:20:09;100459.38;;;14.58;95.54
76627;BME280;65519;53.230;10.390;2023-07-31T02:22:35;100452.16;;;14.63;95.57
76627;BME280;65519;53.230;10.390;2023-07-31T02:25:01;100449.72;;;14.61;95.71
76627;BME280;65519;53.230;10.390;2023-07-31T02:27:27;100445.06;;;14.61;95.45
76627;BME280;65519;53.230;10.390;2023-07-31T02:29:53;100445.06;;;14.61;95.88
76627;BME280;65519;53.230;10.390;2023-07-31T02:32:18;100437.84;;;14.66;95.97
76627;BME280;65519;53.230;10.390;2023-07-31T02:34:44;100449.13;;;14.64;95.82
76627;BME280;65519;53.230;10.390;2023-07-31T02:37:09;100446.16;;;14.60;96.61
76627;BME280;65519;53.230;10.390;2023-07-31T02:39:35;100444.75;;;14.63;96.52
76627;BME280;65519;53.230;10.390;2023-07-31T02:42:00;100447.19;;;14.65;96.18
76627;BME280;65519;53.230;10.390;2023-07-31T02:44:26;100440.91;;;14.64;96.50
76627;BME280;65519;53.230;10.390;2023-07-31T02:46:51;100439.47;;;14.67;96.62
76627;BME280;65519;53.230;10.390;2023-07-31T02:49:17;100434.69;;;14.58;96.90
76627;BME280;65519;53.230;10.390;2023-07-31T02:51:42;100426.06;;;14.65;97.06
76627;BME280;65519;53.230;10.390;2023-07-31T02:54:07;100426.97;;;14.60;97.13
76627;BME280;65519;53.230;10.390;2023-07-31T02:56:33;100427.69;;;14.66;97.57
76627;BME280;65519;53.230;10.390;2023-07-31T02:58:58;100423.03;;;14.67;97.23
76627;BME280;65519;53.230;10.390;2023-07-31T03:01:24;100427.91;;;14.70;97.34
76627;BME280;65519;53.230;10.390;2023-07-31T03:03:49;100429.22;;;14.72;96.97
76627;BME280;65519;53.230;10.390;2023-07-31T03:06:15;100431.97;;;14.72;97.38
76627;BME280;65519;53.230;10.390;2023-07-31T03:08:41;100426.47;;;14.72;97.43
76627;BME280;65519;53.230;10.390;2023-07-31T03:11:06;100430.03;;;14.73;97.36
76627;BME280;65519;53.230;10.390;2023-07-31T03:13:32;100421.19;;;14.76;96.84
76627;BME280;65519;53.230;10.390;2023-07-31T03:15:57;100422.22;;;14.80;97.00
76627;BME280;65519;53.230;10.390;2023-07-31T03:18:23;100418.69;;;14.79;96.99
76627;BME280;65519;53.230;10.390;2023-07-31T03:20:48;100423.03;;;14.80;96.79
76627;BME280;65519;53.230;10.390;2023-07-31T03:23:15;100427.50;;;14.76;96.73
76627;BME280;65519;53.230;10.390;2023-07-31T03:25:55;100407.41;;;14.81;97.03
76627;BME280;65519;53.230;10.390;2023-07-31T03:28:21;100415.63;;;14.81;96.45
76627;BME280;65519;53.230;10.390;2023-07-31T03:30:46;100412.78;;;14.86;96.53
76627;BME280;65519;53.230;10.390;2023-07-31T03:33:12;100412.25;;;14.84;96.67
76627;BME280;65519;53.230;10.390;2023-07-31T03:35:37;100407.88;;;14.83;96.37
76627;BME280;65519;53.230;10.390;2023-07-31T03:38:03;100402.38;;;14.83;96.24
76627;BME280;65519;53.230;10.390;2023-07-31T03:40:29;100406.75;;;14.84;95.68
76627;BME280;65519;53.230;10.390;2023-07-31T03:42:54;100401.28;;;14.84;95.93
76627;BME280;65519;53.230;10.390;2023-07-31T03:45:20;100397.63;;;14.88;95.63
76627;BME280;65519;53.230;10.390;2023-07-31T03:47:45;100392.44;;;14.87;95.84
76627;BME280;65519;53.230;10.390;2023-07-31T03:50:11;100391.94;;;14.85;95.84
76627;BME280;65519;53.230;10.390;2023-07-31T03:52:36;100386.97;;;14.87;95.84
76627;BME280;65519;53.230;10.390;2023-07-31T03:55:02;100382.06;;;14.84;95.57
76627;BME280;65519;53.230;10.390;2023-07-31T03:57:27;100380.34;;;14.88;95.07
76627;BME280;65519;53.230;10.390;2023-07-31T03:59:53;100378.72;;;14.87;95.16
76627;BME280;65519;53.230;10.390;2023-07-31T04:02:18;100385.03;;;14.87;94.88
76627;BME280;65519;53.230;10.390;2023-07-31T04:04:44;100382.06;;;14.84;95.86
76627;BME280;65519;53.230;10.390;2023-07-31T04:07:09;100386.44;;;14.85;96.65
76627;BME280;65519;53.230;10.390;2023-07-31T04:09:36;100384.81;;;14.84;96.97
76627;BME280;65519;53.230;10.390;2023-07-31T04:12:01;100387.38;;;14.80;97.32
76627;BME280;65519;53.230;10.390;2023-07-31T04:14:27;100370.09;;;14.80;97.19
76627;BME280;65519;53.230;10.390;2023-07-31T04:16:52;100374.78;;;14.79;97.87
76627;BME280;65519;53.230;10.390;2023-07-31T04:19:18;100378.13;;;14.76;98.59
76627;BME280;65519;53.230;10.390;2023-07-31T04:21:43;100374.56;;;14.76;98.52
76627;BME280;65519;53.230;10.390;2023-07-31T04:24:09;100380.03;;;14.76;99.31
76627;BME280;65519;53.230;10.390;2023-07-31T04:26:34;100388.78;;;14.78;98.42
76627;BME280;65519;53.230;10.390;2023-07-31T04:29:00;100384.63;;;14.80;98.52
76627;BME280;65519;53.230;10.390;2023-07-31T04:31:25;100391.94;;;14.85;98.85
76627;BME280;65519;53.230;10.390;2023-07-31T04:33:51;100395.50;;;14.85;98.75
76627;BME280;65519;53.230;10.390;2023-07-31T04:36:16;100397.41;;;14.85;98.35
76627;BME280;65519;53.230;10.390;2023-07-31T04:38:41;100394.38;;;14.86;98.42
76627;BME280;65519;53.230;10.390;2023-07-31T04:41:07;100389.69;;;14.87;98.96
76627;BME280;65519;53.230;10.390;2023-07-31T04:43:32;100384.22;;;14.87;98.66
76627;BME280;65519;53.230;10.390;2023-07-31T04:45:58;100385.63;;;14.84;98.69
76627;BME280;65519;53.230;10.390;2023-07-31T04:48:23;100385.03;;;14.87;99.48
76627;BME280;65519;53.230;10.390;2023-07-31T04:50:49;100378.03;;;14.81;99.10
76627;BME280;65519;53.230;10.390;2023-07-31T04:53:14;100383.50;;;14.81;99.41
76627;BME280;65519;53.230;10.390;2023-07-31T04:55:40;100378.72;;;14.73;100.00
76627;BME280;65519;53.230;10.390;2023-07-31T04:58:06;100381.38;;;14.78;99.62
76627;BME280;65519;53.230;10.390;2023-07-31T05:00:31;100379.63;;;14.82;99.70
76627;BME280;65519;53.230;10.390;2023-07-31T05:02:57;100379.97;;;14.81;99.21
76627;BME280;65519;53.230;10.390;2023-07-31T05:05:22;100378.13;;;14.76;99.49
76627;BME280;65519;53.230;10.390;2023-07-31T05:07:48;100387.16;;;14.77;99.67
76627;BME280;65519;53.230;10.390;2023-07-31T05:10:13;100381.16;;;14.75;100.00
76627;BME280;65519;53.230;10.390;2023-07-31T05:12:39;100379.44;;;14.79;100.00
76627;BME280;65519;53.230;10.390;2023-07-31T05:15:04;100380.78;;;14.81;100.00
76627;BME280;65519;53.230;10.390;2023-07-31T05:17:30;100377.22;;;14.81;100.00
76627;BME280;65519;53.230;10.390;2023-07-31T05:19:56;100376.41;;;14.80;100.00
76627;BME280;65519;53.230;10.390;2023-07-31T05:22:21;100369.47;;;14.83;100.00
76627;BME280;65519;53.230;10.390;2023-07-31T05:24:47;100355.34;;;14.76;100.00
76627;BME280;65519;53.230;10.390;2023-07-31T05:27:12;100367.53;;;14.83;100.00
76627;BME280;65519;53.230;10.390;2023-07-31T05:29:40;100374.25;;;14.91;100.00
76627;BME280;65519;53.230;10.390;2023-07-31T05:32:06;100364.28;;;14.95;100.00
76627;BME280;65519;53.230;10.390;2023-07-31T05:34:32;100354.75;;;14.92;100.00
76627;BME280;65519;53.230;10.390;2023-07-31T05:36:57;100365.41;;;14.94;100.00
76627;BME280;65519;53.230;10.390;2023-07-31T05:39:23;100360.03;;;15.03;100.00
76627;BME280;65519;53.230;10.390;2023-07-31T05:41:48;100359.22;;;15.02;100.00
76627;BME280;65519;53.230;10.390;2023-07-31T05:44:13;100354.53;;;15.03;100.00
76627;BME280;65519;53.230;10.390;2023-07-31T05:46:39;100351.78;;;15.03;100.00
76627;BME280;65519;53.230;10.390;2023-07-31T05:49:04;100357.88;;;15.00;100.00
76627;BME280;65519;53.230;10.390;2023-07-31T05:51:30;100349.34;;;15.01;100.00
76627;BME280;65519;53.230;10.390;2023-07-31T05:53:55;100345.97;;;15.04;100.00
76627;BME280;65519;53.230;10.390;2023-07-31T05:56:21;100353.59;;;15.07;100.00
76627;BME280;65519;53.230;10.390;2023-07-31T05:58:47;100342.00;;;15.10;100.00
76627;BME280;65519;53.230;10.390;2023-07-31T06:01:15;100345.56;;;15.11;100.00
76627;BME280;65519;53.230;10.390;2023-07-31T06:03:40;100345.88;;;15.09;100.00
76627;BME280;65519;53.230;10.390;2023-07-31T06:06:06;100330.00;;;15.20;100.00
76627;BME280;65519;53.230;10.390;2023-07-31T06:08:31;100327.25;;;15.20;100.00
76627;BME280;65519;53.230;10.390;2023-07-31T06:10:57;100323.06;;;15.22;100.00
76627;BME280;65519;53.230;10.390;2023-07-31T06:13:22;100316.16;;;15.25;99.35
76627;BME280;65519;53.230;10.390;2023-07-31T06:15:48;100315.00;;;15.26;99.90
76627;BME280;65519;53.230;10.390;2023-07-31T06:18:13;100318.25;;;15.28;99.90
76627;BME280;65519;53.230;10.390;2023-07-31T06:20:39;100323.75;;;15.28;99.38
76627;BME280;65519;53.230;10.390;2023-07-31T06:23:06;100315.94;;;15.35;99.46
76627;BME280;65519;53.230;10.390;2023-07-31T06:25:31;100323.53;;;15.38;99.20
76627;BME280;65519;53.230;10.390;2023-07-31T06:27:56;100312.59;;;15.47;99.24
76627;BME280;65519;53.230;10.390;2023-07-31T06:30:22;100301.31;;;15.48;99.15
76627;BME280;65519;53.230;10.390;2023-07-31T06:32:47;100311.41;;;15.39;98.85
76627;BME280;65519;53.230;10.390;2023-07-31T06:35:13;100302.78;;;15.46;98.18
76627;BME280;65519;53.230;10.390;2023-07-31T06:37:38;100300.31;;;15.44;98.14
76627;BME280;65519;53.230;10.390;2023-07-31T06:40:06;100290.75;;;15.42;98.38
76627;BME280;65519;53.230;10.390;2023-07-31T06:42:34;100287.09;;;15.46;98.79
76627;BME280;65519;53.230;10.390;2023-07-31T06:45:00;100291.78;;;15.46;97.90
76627;BME280;65519;53.230;10.390;2023-07-31T06:47:26;100283.41;;;15.51;97.36
76627;BME280;65519;53.230;10.390;2023-07-31T06:49:51;100295.94;;;15.57;96.96
76627;BME280;65519;53.230;10.390;2023-07-31T06:52:17;100286.94;;;15.65;96.01
76627;BME280;65519;53.230;10.390;2023-07-31T06:54:42;100292.28;;;15.70;95.67
76627;BME280;65519;53.230;10.390;2023-07-31T06:57:08;100288.44;;;15.71;95.59
76627;BME280;65519;53.230;10.390;2023-07-31T06:59:33;100283.44;;;15.73;96.19
76627;BME280;65519;53.230;10.390;2023-07-31T07:01:59;100283.13;;;15.75;95.45
76627;BME280;65519;53.230;10.390;2023-07-31T07:04:24;100287.84;;;15.83;96.16
76627;BME280;65519;53.230;10.390;2023-07-31T07:06:50;100297.22;;;15.82;96.08
76627;BME280;65519;53.230;10.390;2023-07-31T07:09:15;100292.84;;;15.81;95.03
76627;BME280;65519;53.230;10.390;2023-07-31T07:11:41;100277.69;;;15.83;94.93
76627;BME280;65519;53.230;10.390;2023-07-31T07:14:06;100276.66;;;15.79;94.45
76627;BME280;65519;53.230;10.390;2023-07-31T07:16:32;100277.38;;;15.85;94.27
76627;BME280;65519;53.230;10.390;2023-07-31T07:18:58;100274.63;;;15.85;94.77
76627;BME280;65519;53.230;10.390;2023-07-31T07:21:23;100286.63;;;15.89;93.56
76627;BME280;65519;53.230;10.390;2023-07-31T07:23:49;100295.59;;;15.81;93.97
76627;BME280;65519;53.230;10.390;2023-07-31T07:26:14;100294.16;;;15.83;93.31
76627;BME280;65519;53.230;10.390;2023-07-31T07:28:41;100299.25;;;15.90;93.76
76627;BME280;65519;53.230;10.390;2023-07-31T07:31:06;100291.56;;;15.78;94.63
76627;BME280;65519;53.230;10.390;2023-07-31T07:33:32;100293.25;;;15.88;94.79
76627;BME280;65519;53.230;10.390;2023-07-31T07:36:01;100293.03;;;15.84;94.98
76627;BME280;65519;53.230;10.390;2023-07-31T07:38:27;100289.78;;;15.82;95.87
76627;BME280;65519;53.230;10.390;2023-07-31T07:40:53;100294.66;;;15.85;95.63
76627;BME280;65519;53.230;10.390;2023-07-31T07:43:19;100287.53;;;15.84;96.69
76627;BME280;65519;53.230;10.390;2023-07-31T07:45:44;100292.53;;;15.82;96.47
76627;BME280;65519;53.230;10.390;2023-07-31T07:48:10;100285.41;;;15.81;97.21
76627;BME280;65519;53.230;10.390;2023-07-31T07:50:37;100290.41;;;15.79;97.93
76627;BME280;65519;53.230;10.390;2023-07-31T07:53:03;100284.81;;;15.84;98.04
76627;BME280;65519;53.230;10.390;2023-07-31T07:55:28;100285.91;;;15.83;97.34
76627;BME280;65519;53.230;10.390;2023-07-31T07:57:54;100276.19;;;15.77;97.79
76627;BME280;65519;53.230;10.390;2023-07-31T08:00:20;100288.25;;;15.90;97.49
76627;BME280;65519;53.230;10.390;2023-07-31T08:02:46;100279.81;;;15.86;98.22
76627;BME280;65519;53.230;10.390;2023-07-31T08:05:11;100275.69;;;15.75;98.40
76627;BME280;65519;53.230;10.390;2023-07-31T08:07:37;100273.75;;;15.76;98.64
76627;BME280;65519;53.230;10.390;2023-07-31T08:10:02;100276.25;;;15.86;99.55
76627;BME280;65519;53.230;10.390;2023-07-31T08:12:28;100266.38;;;15.85;99.39
76627;BME280;65519;53.230;10.390;2023-07-31T08:14:53;100266.38;;;15.85;99.80
76627;BME280;65519;53.230;10.390;2023-07-31T08:17:19;100269.97;;;15.94;99.69
76627;BME280;65519;53.230;10.390;2023-07-31T08:19:45;100260.78;;;15.98;100.00
76627;BME280;65519;53.230;10.390;2023-07-31T08:22:11;100252.88;;;15.97;100.00
76627;BME280;65519;53.230;10.390;2023-07-31T08:24:37;100250.91;;;15.97;100.00
76627;BME280;65519;53.230;10.390;2023-07-31T08:27:06;100241.81;;;15.88;100.00
76627;BME280;65519;53.230;10.390;2023-07-31T08:29:31;100248.19;;;15.97;100.00
76627;BME280;65519;53.230;10.390;2023-07-31T08:31:57;100243.00;;;15.96;100.00
76627;BME280;65519;53.230;10.390;2023-07-31T08:34:23;100239.63;;;15.99;100.00
76627;BME280;65519;53.230;10.390;2023-07-31T08:36:49;100239.53;;;15.90;100.00
76627;BME280;65519;53.230;10.390;2023-07-31T08:39:14;100238.56;;;15.86;100.00
76627;BME280;65519;53.230;10.390;2023-07-31T08:41:40;100236.44;;;15.83;100.00
76627;BME280;65519;53.230;10.390;2023-07-31T08:44:07;100227.88;;;15.85;100.00
76627;BME280;65519;53.230;10.390;2023-07-31T08:46:32;100239.88;;;15.89;100.00
76627;BME280;65519;53.230;10.390;2023-07-31T08:48:59;100238.69;;;15.81;100.00
76627;BME280;65519;53.230;10.390;2023-07-31T08:51:25;100235.50;;;15.88;100.00
76627;BME280;65519;53.230;10.390;2023-07-31T08:53:53;100235.81;;;15.86;100.00
76627;BME280;65519;53.230;10.390;2023-07-31T08:56:18;100235.31;;;15.84;100.00
76627;BME280;65519;53.230;10.390;2023-07-31T08:58:46;100233.06;;;15.86;100.00
76627;BME280;65519;53.230;10.390;2023-07-31T09:01:12;100233.44;;;15.93;100.00
76627;BME280;65519;53.230;10.390;2023-07-31T09:03:39;100233.31;;;15.98;100.00
76627;BME280;65519;53.230;10.390;2023-07-31T09:06:06;100226.19;;;15.97;100.00
76627;BME280;65519;53.230;10.390;2023-07-31T09:08:32;100220.53;;;16.02;100.00
76627;BME280;65519;53.230;10.390;2023-07-31T09:11:02;100222.53;;;16.11;100.00
76627;BME280;65519;53.230;10.390;2023-07-31T09:13:31;100219.59;;;16.07;100.00
76627;BME280;65519;53.230;10.390;2023-07-31T09:15:57;100223.00;;;16.13;100.00
76627;BME280;65519;53.230;10.390;2023-07-31T09:18:23;100216.25;;;16.19;100.00
76627;BME280;65519;53.230;10.390;2023-07-31T09:21:04;100210.13;;;16.22;100.00
76627;BME280;65519;53.230;10.390;2023-07-31T09:23:44;100212.19;;;16.16;100.00
76627;BME280;65519;53.230;10.390;2023-07-31T09:26:10;100210.13;;;16.22;100.00
76627;BME280;65519;53.230;10.390;2023-07-31T09:28:36;100201.06;;;16.30;100.00
76627;BME280;65519;53.230;10.390;2023-07-31T09:31:02;100204.31;;;16.32;100.00
76627;BME280;65519;53.230;10.390;2023-07-31T09:33:27;100198.66;;;16.37;100.00
76627;BME280;65519;53.230;10.390;2023-07-31T09:35:53;100198.34;;;16.38;100.00
76627;BME280;65519;53.230;10.390;2023-07-31T09:38:18;100201.75;;;16.44;100.00
76627;BME280;65519;53.230;10.390;2023-07-31T09:40:48;100183.16;;;16.58;100.00
76627;BME280;65519;53.230;10.390;2023-07-31T09:43:19;100199.25;;;16.73;100.00
76627;BME280;65519;53.230;10.390;2023-07-31T09:45:45;100188.88;;;16.62;99.90
76627;BME280;65519;53.230;10.390;2023-07-31T09:48:13;100191.63;;;16.70;100.00
76627;BME280;65519;53.230;10.390;2023-07-31T09:50:42;100195.69;;;16.73;100.00
76627;BME280;65519;53.230;10.390;2023-07-31T09:53:08;100185.63;;;16.68;99.87
76627;BME280;65519;53.230;10.390;2023-07-31T09:55:36;100193.09;;;16.76;98.90
76627;BME280;65519;53.230;10.390;2023-07-31T09:58:10;100185.19;;;16.84;98.58
76627;BME280;65519;53.230;10.390;2023-07-31T10:00:36;100177.88;;;16.79;98.44
76627;BME280;65519;53.230;10.390;2023-07-31T10:03:06;100186.47;;;16.77;97.80
76627;BME280;65519;53.230;10.390;2023-07-31T10:05:38;100186.13;;;16.79;97.97
76627;BME280;65519;53.230;10.390;2023-07-31T10:08:06;100179.00;;;16.78;97.55
76627;BME280;65519;53.230;10.390;2023-07-31T10:10:32;100184.88;;;16.94;96.02
76627;BME280;65519;53.230;10.390;2023-07-31T10:13:01;100179.34;;;17.02;96.17
76627;BME280;65519;53.230;10.390;2023-07-31T10:15:28;100180.47;;;17.10;96.15
76627;BME280;65519;53.230;10.390;2023-07-31T10:17:55;100179.50;;;17.14;93.49
76627;BME280;65519;53.230;10.390;2023-07-31T10:20:21;100178.72;;;17.05;95.24
76627;BME280;65519;53.230;10.390;2023-07-31T10:22:47;100172.06;;;17.06;95.09
76627;BME280;65519;53.230;10.390;2023-07-31T10:25:15;100176.44;;;17.16;94.67
76627;BME280;65519;53.230;10.390;2023-07-31T10:27:41;100170.59;;;17.18;93.54
76627;BME280;65519;53.230;10.390;2023-07-31T10:30:27;100168.78;;;17.39;93.25
76627;BME280;65519;53.230;10.390;2023-07-31T10:32:55;100158.53;;;17.57;92.21
76627;BME280;65519;53.230;10.390;2023-07-31T10:35:21;100171.00;;;17.54;92.57
76627;BME280;65519;53.230;10.390;2023-07-31T10:37:50;100159.72;;;17.38;91.52
76627;BME280;65519;53.230;10.390;2023-07-31T10:40:24;100165.38;;;17.50;91.37
76627;BME280;65519;53.230;10.390;2023-07-31T10:42:51;100167.00;;;17.34;92.61
76627;BME280;65519;53.230;10.390;2023-07-31T10:45:42;100155.34;;;17.37;91.79
76627;BME280;65519;53.230;10.390;2023-07-31T10:48:15;100160.69;;;17.34;93.26
76627;BME280;65519;53.230;10.390;2023-07-31T10:50:59;100167.19;;;17.29;93.22
76627;BME280;65519;53.230;10.390;2023-07-31T10:53:31;100160.69;;;17.25;93.80
76627;BME280;65519;53.230;10.390;2023-07-31T10:56:05;100150.31;;;17.22;93.16
76627;BME280;65519;53.230;10.390;2023-07-31T10:58:31;100147.09;;;17.11;93.81
76627;BME280;65519;53.230;10.390;2023-07-31T11:01:02;100154.56;;;17.20;94.46
76627;BME280;65519;53.230;10.390;2023-07-31T11:03:47;100145.13;;;17.21;94.27
76627;BME280;65519;53.230;10.390;2023-07-31T11:06:15;100144.97;;;17.26;95.70
76627;BME280;65519;53.230;10.390;2023-07-31T11:08:46;100141.91;;;17.27;95.53
76627;BME280;65519;53.230;10.390;2023-07-31T11:11:14;100140.47;;;17.12;97.15
76627;BME280;65519;53.230;10.390;2023-07-31T11:13:53;100142.09;;;17.13;97.98
76627;BME280;65519;53.230;10.390;2023-07-31T11:16:23;100141.78;;;17.06;99.03
76627;BME280;65519;53.230;10.390;2023-07-31T11:18:49;100133.34;;;17.11;100.00
76627;BME280;65519;53.230;10.390;2023-07-31T11:21:24;100130.91;;;17.10;100.00
76627;BME280;65519;53.230;10.390;2023-07-31T11:23:56;100129.59;;;17.16;100.00
76627;BME280;65519;53.230;10.390;2023-07-31T11:26:23;100120.88;;;17.14;100.00
76627;BME280;65519;53.230;10.390;2023-07-31T11:28:50;100116.63;;;17.25;99.96
76627;BME280;65519;53.230;10.390;2023-07-31T11:31:16;100122.94;;;17.26;99.76
76627;BME280;65519;53.230;10.390;2023-07-31T11:33:42;100119.88;;;17.27;99.52
76627;BME280;65519;53.230;10.390;2023-07-31T11:36:17;100114.50;;;17.31;100.00
76627;BME280;65519;53.230;10.390;2023-07-31T11:38:43;100111.06;;;17.42;99.87
76627;BME280;65519;53.230;10.390;2023-07-31T11:41:09;100100.03;;;17.42;100.00
76627;BME280;65519;53.230;10.390;2023-07-31T11:43:34;100101.34;;;17.45;99.58
76627;BME280;65519;53.230;10.390;2023-07-31T11:46:02;100108.13;;;17.47;100.00
76627;BME280;65519;53.230;10.390;2023-07-31T11:48:34;100107.97;;;17.44;99.98
76627;BME280;65519;53.230;10.390;2023-07-31T11:51:08;100094.69;;;17.46;99.84
76627;BME280;65519;53.230;10.390;2023-07-31T11:56:03;100107.97;;;17.44;99.97
76627;BME280;65519;53.230;10.390;2023-07-31T11:58:33;100100.22;;;17.37;99.69
76627;BME280;65519;53.230;10.390;2023-07-31T12:01:00;100092.44;;;17.39;100.00
76627;BME280;65519;53.230;10.390;2023-07-31T12:03:26;100097.31;;;17.34;100.00
76627;BME280;65519;53.230;10.390;2023-07-31T12:05:53;100086.50;;;17.29;100.00
76627;BME280;65519;53.230;10.390;2023-07-31T12:08:20;100088.44;;;17.28;100.00
76627;BME280;65519;53.230;10.390;2023-07-31T12:10:46;100094.06;;;17.32;100.00
76627;BME280;65519;53.230;10.390;2023-07-31T12:13:20;100088.09;;;17.30;100.00
76627;BME280;65519;53.230;10.390;2023-07-31T12:15:47;100085.97;;;17.35;100.00
76627;BME280;65519;53.230;10.390;2023-07-31T12:18:14;100087.09;;;17.34;100.00
76627;BME280;65519;53.230;10.390;2023-07-31T12:20:43;100082.41;;;17.35;100.00
76627;BME280;65519;53.230;10.390;2023-07-31T12:23:30;100085.19;;;17.26;100.00
76627;BME280;65519;53.230;10.390;2023-07-31T12:28:38;100081.44;;;17.31;100.00
76627;BME280;65519;53.230;10.390;2023-07-31T12:31:04;100083.38;;;17.39;100.00
76627;BME280;65519;53.230;10.390;2023-07-31T12:33:35;100080.13;;;17.37;100.00
76627;BME280;65519;53.230;10.390;2023-07-31T12:36:02;100076.91;;;17.35;100.00
76627;BME280;65519;53.230;10.390;2023-07-31T12:38:28;100076.09;;;17.34;100.00
76627;BME280;65519;53.230;10.390;2023-07-31T12:40:54;100062.50;;;17.29;100.00
76627;BME280;65519;53.230;10.390;2023-07-31T12:43:19;100071.72;;;17.33;100.00
76627;BME280;65519;53.230;10.390;2023-07-31T12:45:44;100066.53;;;17.32;100.00
76627;BME280;65519;53.230;10.390;2023-07-31T12:48:10;100056.31;;;17.32;100.00
76627;BME280;65519;53.230;10.390;2023-07-31T12:50:36;100066.03;;;17.38;100.00